Currently 67°F in Riverside (Presidential Park), California, USA
67°F
67°F / 47°F
1 mph SE
0.00"
Saturday, December 15, 2018 11:22 AM PST

Riverside (Presidential Park), California Weather Summary
Last 36 Hours

Temperature Winds Hourly Humidity Dewpoint
Time Report Norm Report Norm Max Gusts Precip. Rpt. Norm Rpt. Norm Pressure
1Sat 11:22 AM  66.6°F  63°F  1 mph SE  3 mph  2 mph  0.00"  27%  46%  30°F  41°F  30.05"
2Sat 11:20 AM  66.7°F  63°F  calm  3 mph  2 mph  ----  27%  46%  31°F  41°F  30.05"
Sat 11:00 AM  65.6°F  62°F  calm  3 mph  3 mph  0.00"  31%  48%  33°F  41°F  30.07"
Sat 10:00 AM  60.9°F  59°F  calm  3 mph  3 mph  0.00"  39%  53%  35°F  41°F  30.08"
Sat 09:00 AM  56.2°F  55°F  calm  2 mph  3 mph  0.00"  46%  60%  35°F  41°F  30.08"
Sat 08:00 AM  48.0°F  50°F  calm  1 mph  2 mph  0.00"  54%  67%  32°F  39°F  30.06"
Sat 07:00 AM  48.4°F  48°F  2 mph NE  2 mph  4 mph  0.00"  51%  68%  30°F  38°F  30.06"
Sat 06:00 AM  48.0°F  48°F  2 mph E  2 mph  6 mph  0.00"  54%  68%  31°F  38°F  30.05"
3Sat 05:37 AM  47.4°F  48°F  calm  2 mph  none  ----  59%  67%  33°F  38°F  30.05"
Sat 05:00 AM  48.1°F  49°F  calm  2 mph  none  0.00"  57%  67%  33°F  38°F  30.05"
Sat 04:00 AM  50.1°F  49°F  calm  2 mph  4 mph  0.00"  54%  66%  33°F  38°F  30.05"
Sat 03:00 AM  51.3°F  50°F  calm  2 mph  6 mph  0.00"  48%  66%  32°F  38°F  30.08"
Sat 02:00 AM  50.9°F  50°F  calm  2 mph  4 mph  0.00"  50%  66%  32°F  39°F  30.09"
Sat 01:00 AM  53.2°F  51°F  calm  2 mph  8 mph  0.00"  46%  66%  32°F  39°F  30.09"
Sat 12:00 AM  53.4°F  51°F  calm  2 mph  4 mph  0.00"  47%  64%  33°F  39°F  30.09"
Fri 11:00 PM  55.0°F  52°F  calm  1 mph  none  0.00"  43%  65%  32°F  40°F  30.10"
Fri 10:00 PM  55.8°F  53°F  calm  2 mph  4 mph  0.00"  40%  63%  31°F  40°F  30.10"
Fri 09:00 PM  56.2°F  54°F  2 mph E  2 mph  2 mph  0.00"  39%  61%  31°F  40°F  30.12"
Fri 08:00 PM  58.0°F  55°F  calm  2 mph  7 mph  0.00"  34%  59%  29°F  40°F  30.11"
Fri 07:00 PM  59.0°F  57°F  4 mph SE  2 mph  6 mph  0.00"  32%  55%  28°F  41°F  30.11"
Fri 06:00 PM  60.2°F  60°F  3 mph SE  2 mph  7 mph  0.00"  32%  51%  29°F  41°F  30.11"
Fri 05:00 PM  63.1°F  62°F  4 mph E  3 mph  4 mph  0.00"  26%  45%  26°F  40°F  30.09"
Fri 04:00 PM  65.9°F  65°F  calm  4 mph  1 mph  0.00"  29%  40%  31°F  40°F  30.10"
Fri 03:00 PM  68.2°F  66°F  calm  5 mph  4 mph  0.00"  30%  38%  34°F  39°F  30.09"
Fri 02:00 PM  64.0°F  67°F  calm  4 mph  3 mph  0.00"  39%  38%  38°F  39°F  30.09"
Fri 01:00 PM  63.3°F  66°F  calm  4 mph  3 mph  0.00"  39%  39%  37°F  40°F  30.11"
Fri 12:00 PM  62.0°F  65°F  calm  3 mph  3 mph  0.00"  41%  42%  37°F  40°F  30.13"
Fri 11:00 AM  59.6°F  62°F  calm  3 mph  5 mph  0.00"  44%  47%  37°F  41°F  30.16"
Fri 10:00 AM  58.8°F  59°F  4 mph NW  3 mph  6 mph  0.00"  42%  53%  35°F  41°F  30.19"
Fri 09:00 AM  55.4°F  56°F  calm  2 mph  5 mph  0.00"  49%  60%  36°F  41°F  30.19"
Fri 08:00 AM  52.9°F  50°F  calm  2 mph  4 mph  0.00"  51%  67%  35°F  39°F  30.19"
Fri 07:00 AM  50.4°F  49°F  calm  2 mph  4 mph  0.00"  55%  67%  34°F  38°F  30.17"
Fri 06:00 AM  50.5°F  49°F  calm  2 mph  3 mph  0.00"  55%  67%  34°F  38°F  30.16"
Fri 05:00 AM  51.1°F  49°F  calm  2 mph  2 mph  0.00"  51%  67%  33°F  38°F  30.15"
Fri 04:00 AM  50.9°F  49°F  calm  2 mph  none  0.00"  52%  67%  33°F  38°F  30.14"
Fri 03:00 AM  51.1°F  50°F  calm  2 mph  5 mph  0.00"  52%  66%  33°F  38°F  30.15"
Fri 02:00 AM  53.2°F  50°F  calm  2 mph  5 mph  0.00"  49%  66%  34°F  39°F  30.16"
Fri 01:00 AM  56.4°F  51°F  calm  2 mph  9 mph  0.00"  40%  66%  31°F  39°F  30.17"
Fri 12:00 AM  60.0°F  51°F  4 mph E  2 mph  12 mph  0.00"  30%  65%  27°F  39°F  30.19"

  1. Current weather data. No green row appears if the current weather data is also the high or low for the current day.
  2. High temperature for the current day.
  3. Low temperature for the current day.

The Riverside (Presidential Park), California weather pages are a service of WeatherCurrents.
Copyright ©Sat Dec 15 11:22:20 PST 2018  WeatherCurrents. All rights reserved. - Submit questions and comments - Privacy Policy

This page automatically refreshes every 10 minutes.